Time;durP1;ratioP1;P1;durP2;ratioP2;P2;SDS_P1;SDS_P2;PMS_P1;PMS_P2;Temp;Humidity;BMP_temperature;BMP_pressure;BME280_temperature;BME280_humidity;BME280_pressure;Samples;Min_cycle;Max_cycle;Signal;HPM_P1;HPM_P2
2023/09/03 00:01:11;;;;;;;;;;;;;;;21.84;27.23;98329.56;5057392;28;805;-76
2023/09/03 00:03:37;;;;;;;;;;;;;;;21.60;27.97;98333.72;5056922;28;1548;-76
2023/09/03 00:06:03;;;;;;;;;;;;;;;21.58;27.76;98333.38;5019666;28;1600;-76
2023/09/03 00:08:28;;;;;;;;;;;;;;;21.69;27.55;98336.78;5003215;28;1100;-77
2023/09/03 00:10:54;;;;;;;;;;;;;;;21.59;27.87;98351.97;5019604;28;1898;-77
2023/09/03 00:13:20;;;;;;;;;;;;;;;21.68;27.74;98332.34;5036140;28;841;-76
2023/09/03 00:15:46;;;;;;;;;;;;;;;21.70;27.47;98335.53;5018806;28;973;-77
2023/09/03 00:18:12;;;;;;;;;;;;;;;21.75;27.46;98326.53;5003164;28;1161;-76
2023/09/03 00:20:38;;;;;;;;;;;;;;;21.88;27.23;98328.69;5019081;28;1732;-76
2023/09/03 00:23:04;;;;;;;;;;;;;;;22.02;27.28;98342.50;4977091;28;1325;-76
2023/09/03 00:25:36;;;;;;;;;;;;;;;22.00;26.82;98330.84;4961000;28;1077;-76
2023/09/03 00:28:02;;;;;;;;;;;;;;;21.70;27.49;98329.88;4977049;28;915;-77
2023/09/03 00:30:27;;;;;;;;;;;;;;;21.70;27.50;98327.03;4960996;28;1973;-77
2023/09/03 00:32:53;;;;;;;;;;;;;;;21.47;28.00;98333.59;4960879;28;1158;-76
2023/09/03 00:35:18;;;;;;;;;;;;;;;21.57;27.79;98337.44;4960343;28;1343;-76
2023/09/03 00:37:44;;;;;;;;;;;;;;;21.98;27.13;98334.13;4991638;28;1115;-76
2023/09/03 00:40:10;;;;;;;;;;;;;;;21.49;27.80;98331.13;4976886;28;1139;-76
2023/09/03 00:42:35;;;;;;;;;;;;;;;21.47;27.66;98327.94;4976828;28;1276;-76
2023/09/03 00:45:01;;;;;;;;;;;;;;;21.58;27.62;98333.38;4976509;28;865;-76
2023/09/03 00:47:27;;;;;;;;;;;;;;;21.57;27.57;98324.09;4976912;28;982;-77
2023/09/03 00:49:52;;;;;;;;;;;;;;;21.74;27.33;98318.47;4975955;28;1977;-76
2023/09/03 00:52:19;;;;;;;;;;;;;;;21.76;27.40;98311.16;4960031;28;1314;-77
2023/09/03 00:54:45;;;;;;;;;;;;;;;21.82;27.27;98323.53;5022190;28;1532;-76
2023/09/03 00:57:10;;;;;;;;;;;;;;;21.78;27.30;98320.00;5019109;28;1165;-77
2023/09/03 00:59:36;;;;;;;;;;;;;;;21.93;26.95;98322.50;5035381;28;1261;-76
2023/09/03 01:02:01;;;;;;;;;;;;;;;21.87;27.13;98332.78;5035287;28;995;-76
2023/09/03 01:04:28;;;;;;;;;;;;;;;21.81;27.29;98316.28;5018735;28;1228;-76
2023/09/03 01:06:53;;;;;;;;;;;;;;;21.57;27.44;98328.97;5018911;28;913;-76
2023/09/03 01:09:19;;;;;;;;;;;;;;;21.56;27.53;98331.00;5030037;28;1967;-76
2023/09/03 01:11:48;;;;;;;;;;;;;;;21.62;27.41;98319.16;5031279;28;1157;-77
2023/09/03 01:14:33;;;;;;;;;;;;;;;21.61;27.41;98324.03;5034939;28;1126;-76
2023/09/03 01:17:17;;;;;;;;;;;;;;;21.37;27.66;98322.50;5018758;28;1139;-76
2023/09/03 01:19:54;;;;;;;;;;;;;;;21.61;27.37;98309.88;5034893;28;889;-76
2023/09/03 01:22:32;;;;;;;;;;;;;;;21.38;27.79;98313.56;5015398;28;1230;-76
2023/09/03 01:25:05;;;;;;;;;;;;;;;21.72;27.31;98310.41;5010383;28;1524;-76
2023/09/03 01:27:30;;;;;;;;;;;;;;;21.60;27.59;98313.91;5015034;28;860;-76
2023/09/03 01:29:56;;;;;;;;;;;;;;;21.59;27.33;98312.31;5015345;28;1906;-77
2023/09/03 01:32:22;;;;;;;;;;;;;;;21.82;27.31;98315.06;5031695;28;1209;-76
2023/09/03 01:34:48;;;;;;;;;;;;;;;21.68;27.56;98317.41;5014916;28;991;-77
2023/09/03 01:37:13;;;;;;;;;;;;;;;21.60;27.58;98313.91;5015284;28;787;-77
2023/09/03 01:39:39;;;;;;;;;;;;;;;21.52;27.45;98318.13;5034281;28;1294;-76
2023/09/03 01:42:05;;;;;;;;;;;;;;;21.59;27.56;98326.47;5034980;28;1177;-76
2023/09/03 01:44:30;;;;;;;;;;;;;;;21.74;27.23;98319.25;5034737;28;909;-76
2023/09/03 01:46:56;;;;;;;;;;;;;;;21.36;27.68;98315.25;5034835;28;1123;-77
2023/09/03 01:49:27;;;;;;;;;;;;;;;21.40;27.84;98322.44;5034546;28;1910;-77
2023/09/03 01:51:53;;;;;;;;;;;;;;;21.51;27.66;98320.19;5046548;28;976;-76
2023/09/03 01:54:19;;;;;;;;;;;;;;;21.61;27.30;98321.19;5052698;28;1505;-76
2023/09/03 01:56:56;;;;;;;;;;;;;;;21.82;26.88;98309.38;5005081;28;1222;-76
2023/09/03 01:59:23;;;;;;;;;;;;;;;21.83;26.88;98313.81;5025465;28;1190;-76
2023/09/03 02:01:50;;;;;;;;;;;;;;;21.85;27.13;98310.53;5039023;28;1220;-76
2023/09/03 02:04:16;;;;;;;;;;;;;;;21.74;27.08;98307.94;5018273;28;1253;-76
2023/09/03 02:06:47;;;;;;;;;;;;;;;21.46;27.72;98314.22;5001957;28;1104;-76
2023/09/03 02:09:13;;;;;;;;;;;;;;;21.71;27.35;98310.84;5006753;28;1926;-77
2023/09/03 02:11:39;;;;;;;;;;;;;;;21.61;27.45;98309.06;4982535;28;1172;-76
2023/09/03 02:14:05;;;;;;;;;;;;;;;21.46;27.67;98308.56;4959416;28;1145;-77
2023/09/03 02:16:30;;;;;;;;;;;;;;;21.65;27.52;98304.09;4943827;28;1223;-76
2023/09/03 02:18:56;;;;;;;;;;;;;;;21.36;27.73;98306.75;4943608;28;1242;-76
2023/09/03 02:21:21;;;;;;;;;;;;;;;21.25;28.12;98309.78;4956355;28;1178;-77
2023/09/03 02:23:47;;;;;;;;;;;;;;;21.46;27.85;98308.56;4923645;29;1325;-76
2023/09/03 02:26:12;;;;;;;;;;;;;;;21.38;27.92;98307.09;4956206;28;1328;-76
2023/09/03 02:28:39;;;;;;;;;;;;;;;21.57;27.65;98309.13;4956148;29;1130;-76
2023/09/03 02:31:05;;;;;;;;;;;;;;;21.70;27.29;98306.41;4956502;28;1993;-77
2023/09/03 02:33:31;;;;;;;;;;;;;;;21.29;28.14;98311.28;4956405;28;1326;-76
2023/09/03 02:35:56;;;;;;;;;;;;;;;21.75;27.45;98300.22;4971888;28;1160;-77
2023/09/03 02:38:22;;;;;;;;;;;;;;;21.65;27.61;98304.09;4959396;28;1203;-77
2023/09/03 02:40:48;;;;;;;;;;;;;;;21.43;27.90;98309.44;4970480;28;1385;-76
2023/09/03 02:43:14;;;;;;;;;;;;;;;21.68;27.74;98292.69;4974012;28;1480;-77
2023/09/03 02:45:39;;;;;;;;;;;;;;;21.64;27.59;98296.84;4974112;28;1084;-77
2023/09/03 02:48:06;;;;;;;;;;;;;;;21.62;27.51;98305.78;4986329;28;1568;-77
2023/09/03 02:50:34;;;;;;;;;;;;;;;21.46;27.87;98312.19;4981656;28;1906;-77
2023/09/03 02:52:59;;;;;;;;;;;;;;;21.47;27.98;98315.81;4998385;28;1177;-76
2023/09/03 02:55:25;;;;;;;;;;;;;;;21.35;28.12;98307.97;4982273;28;1290;-76
2023/09/03 02:57:50;;;;;;;;;;;;;;;21.74;27.54;98307.94;4984244;28;1195;-76
2023/09/03 03:00:18;;;;;;;;;;;;;;;21.97;26.90;98309.06;5023708;28;1294;-76
2023/09/03 03:02:44;;;;;;;;;;;;;;;21.84;27.11;98303.28;4985076;28;1108;-76
2023/09/03 03:05:09;;;;;;;;;;;;;;;21.56;27.65;98313.22;5001418;28;953;-77
2023/09/03 03:07:37;;;;;;;;;;;;;;;21.50;27.67;98297.94;5001489;28;1376;-76
2023/09/03 03:10:04;;;;;;;;;;;;;;;21.37;28.17;98311.97;4985410;28;1979;-76
2023/09/03 03:12:31;;;;;;;;;;;;;;;21.65;27.68;98304.91;5017193;28;947;-76
2023/09/03 03:14:57;;;;;;;;;;;;;;;21.52;27.85;98307.63;5023262;28;1543;-76
2023/09/03 03:17:23;;;;;;;;;;;;;;;21.30;28.16;98307.28;5057033;28;985;-77
2023/09/03 03:19:50;;;;;;;;;;;;;;;21.60;27.63;98311.06;5057253;28;1081;-77
2023/09/03 03:22:15;;;;;;;;;;;;;;;21.47;28.01;98302.47;5032524;28;1503;-76
2023/09/03 03:24:41;;;;;;;;;;;;;;;21.55;27.46;98300.25;5018187;28;1578;-76
2023/09/03 03:27:07;;;;;;;;;;;;;;;21.63;27.43;98301.72;5020185;28;1213;-77
2023/09/03 03:29:33;;;;;;;;;;;;;;;21.74;27.60;98302.28;5020478;28;1961;-76
2023/09/03 03:31:58;;;;;;;;;;;;;;;21.43;27.85;98298.91;5020021;28;1147;-77
2023/09/03 03:34:25;;;;;;;;;;;;;;;21.54;27.74;98307.16;5020478;28;1211;-77
2023/09/03 03:36:55;;;;;;;;;;;;;;;21.29;28.00;98305.63;5020298;28;1078;-77
2023/09/03 03:39:20;;;;;;;;;;;;;;;21.44;27.95;98300.50;5036375;28;1521;-76
2023/09/03 03:41:46;;;;;;;;;;;;;;;21.64;27.62;98297.63;5016867;28;1137;-76
2023/09/03 03:44:15;;;;;;;;;;;;;;;21.68;27.50;98308.91;5016545;28;1125;-77
2023/09/03 03:46:42;;;;;;;;;;;;;;;20.80;27.74;98183.78;5000346;28;1404;-76
2023/09/03 03:49:08;;;;;;;;;;;;;;;21.79;27.41;98310.25;5000661;28;1988;-76
2023/09/03 03:51:34;;;;;;;;;;;;;;;21.88;27.21;98311.69;5000683;28;1245;-77
2023/09/03 03:54:03;;;;;;;;;;;;;;;21.89;27.14;98308.41;5000137;28;1493;-76
2023/09/03 03:56:29;;;;;;;;;;;;;;;21.71;27.59;98311.66;5000987;28;1115;-77
2023/09/03 03:58:56;;;;;;;;;;;;;;;21.84;27.47;98312.56;5004076;28;1077;-77
2023/09/03 04:01:24;;;;;;;;;;;;;;;21.83;27.60;98313.81;5036722;28;995;-76
2023/09/03 04:03:52;;;;;;;;;;;;;;;21.81;27.41;98304.97;5020188;28;923;-76
2023/09/03 04:06:18;;;;;;;;;;;;;;;21.71;27.52;98297.50;5015888;28;883;-76
2023/09/03 04:08:43;;;;;;;;;;;;;;;21.73;27.50;98300.69;4999521;28;1244;-78
2023/09/03 04:11:10;;;;;;;;;;;;;;;21.76;27.58;98296.16;5000208;28;1944;-77
2023/09/03 04:13:40;;;;;;;;;;;;;;;21.82;27.46;98298.06;5019894;28;1181;-78
2023/09/03 04:16:10;;;;;;;;;;;;;;;21.71;27.79;98297.50;5023003;28;1315;-77
2023/09/03 04:18:36;;;;;;;;;;;;;;;21.45;27.91;98301.28;5022505;28;1115;-78
2023/09/03 04:21:02;;;;;;;;;;;;;;;21.47;28.07;98296.00;5047737;28;1300;-78
2023/09/03 04:23:28;;;;;;;;;;;;;;;21.42;28.13;98291.66;5030331;28;1385;-78
2023/09/03 04:25:56;;;;;;;;;;;;;;;21.56;27.84;98284.91;5035597;28;1270;-78
2023/09/03 04:28:24;;;;;;;;;;;;;;;21.55;28.07;98283.28;5005854;28;1277;-77
2023/09/03 04:30:56;;;;;;;;;;;;;;;21.47;27.87;98287.50;5032429;28;1906;-78
2023/09/03 04:33:23;;;;;;;;;;;;;;;21.59;27.79;98295.31;5030315;28;1289;-78
2023/09/03 04:35:58;;;;;;;;;;;;;;;21.47;27.91;98288.31;5037826;28;1281;-78
2023/09/03 04:38:27;;;;;;;;;;;;;;;21.46;27.97;98286.72;5032415;28;1246;-78
2023/09/03 04:40:53;;;;;;;;;;;;;;;21.92;27.10;98284.88;5029916;28;1262;-78
2023/09/03 04:43:18;;;;;;;;;;;;;;;21.58;27.49;98283.19;5017329;28;1325;-78
2023/09/03 04:45:45;;;;;;;;;;;;;;;21.64;27.41;98280.66;5055923;28;1150;-78
2023/09/03 04:48:11;;;;;;;;;;;;;;;21.63;27.54;98279.06;5055586;28;1091;-78
2023/09/03 04:50:37;;;;;;;;;;;;;;;21.35;28.01;98283.31;5064070;28;1914;-79
2023/09/03 04:53:03;;;;;;;;;;;;;;;21.76;27.50;98282.00;5030966;28;1249;-78
2023/09/03 04:55:31;;;;;;;;;;;;;;;21.41;27.84;98289.25;5033236;28;1253;-78
2023/09/03 04:57:56;;;;;;;;;;;;;;;21.46;28.05;98274.59;5039784;28;1138;-78
2023/09/03 05:00:22;;;;;;;;;;;;;;;21.36;28.20;98278.47;5039628;28;878;-79
2023/09/03 05:02:48;;;;;;;;;;;;;;;21.57;27.98;98275.16;5072676;28;1193;-79
2023/09/03 05:05:14;;;;;;;;;;;;;;;21.49;27.84;98279.38;5056510;28;1169;-79
2023/09/03 05:07:40;;;;;;;;;;;;;;;21.38;28.38;98275.97;5040078;28;1135;-79
2023/09/03 05:10:07;;;;;;;;;;;;;;;21.51;27.86;98277.72;5056085;28;1906;-78
2023/09/03 05:12:33;;;;;;;;;;;;;;;21.61;27.95;98281.53;5055997;28;1301;-79
2023/09/03 05:14:59;;;;;;;;;;;;;;;21.43;27.99;98281.13;5040023;28;1235;-79
2023/09/03 05:17:25;;;;;;;;;;;;;;;21.55;28.09;98280.44;5040035;28;1206;-79
2023/09/03 05:19:50;;;;;;;;;;;;;;;21.81;27.37;98287.97;5056410;28;1249;-78
2023/09/03 05:22:16;;;;;;;;;;;;;;;21.75;27.58;98275.53;5039414;28;1253;-79
2023/09/03 05:24:42;;;;;;;;;;;;;;;21.82;27.50;98281.06;5039597;28;1143;-79
2023/09/03 05:27:08;;;;;;;;;;;;;;;21.88;27.71;98277.69;5039703;28;1147;-78
2023/09/03 05:29:34;;;;;;;;;;;;;;;21.50;28.23;98278.13;5056086;28;1914;-78
2023/09/03 05:31:59;;;;;;;;;;;;;;;21.74;27.81;98290.94;5055991;28;940;-78
2023/09/03 05:34:25;;;;;;;;;;;;;;;21.50;28.27;98292.28;5037837;28;1079;-78
2023/09/03 05:36:52;;;;;;;;;;;;;;;21.51;28.26;98283.38;5038297;28;1262;-78
2023/09/03 05:39:17;;;;;;;;;;;;;;;21.37;28.61;98277.22;5038178;28;1220;-78
2023/09/03 05:41:43;;;;;;;;;;;;;;;21.82;27.59;98286.72;5021931;28;1261;-79
2023/09/03 05:44:09;;;;;;;;;;;;;;;21.60;28.12;98279.94;5038383;28;1010;-78
2023/09/03 05:46:37;;;;;;;;;;;;;;;21.78;27.99;98280.34;5038950;28;1306;-78
2023/09/03 05:49:02;;;;;;;;;;;;;;;21.95;27.97;98288.84;4998478;28;1971;-78
2023/09/03 05:51:28;;;;;;;;;;;;;;;21.79;27.85;98281.94;4998722;28;1385;-78
2023/09/03 05:53:54;;;;;;;;;;;;;;;21.70;28.29;98278.88;5014995;28;1225;-78
2023/09/03 05:56:21;;;;;;;;;;;;;;;21.54;28.34;98276.03;4998888;28;1242;-79
2023/09/03 05:58:49;;;;;;;;;;;;;;;21.90;27.88;98292.22;4998771;28;1568;-78
2023/09/03 06:01:16;;;;;;;;;;;;;;;21.68;28.29;98287.03;4998915;28;1104;-78
2023/09/03 06:03:42;;;;;;;;;;;;;;;21.71;28.39;98283.34;4991845;28;1258;-79
2023/09/03 06:06:09;;;;;;;;;;;;;;;21.88;27.95;98286.19;5008320;28;1167;-78
2023/09/03 06:08:35;;;;;;;;;;;;;;;21.69;28.11;98294.28;4995462;28;1148;-79
2023/09/03 06:11:01;;;;;;;;;;;;;;;21.73;28.09;98283.69;4995245;28;1903;-78
2023/09/03 06:13:27;;;;;;;;;;;;;;;21.83;28.17;98285.47;4978802;28;877;-79
2023/09/03 06:15:55;;;;;;;;;;;;;;;22.11;27.84;98291.72;4982688;28;964;-78
2023/09/03 06:18:21;;;;;;;;;;;;;;;21.99;27.96;98298.06;4982760;28;834;-79
2023/09/03 06:20:47;;;;;;;;;;;;;;;21.61;28.71;98298.53;5014625;28;1176;-79
2023/09/03 06:23:17;;;;;;;;;;;;;;;21.88;28.34;98295.50;5038665;28;1170;-79
2023/09/03 06:25:43;;;;;;;;;;;;;;;21.92;28.01;98292.59;5054475;28;1115;-79
2023/09/03 06:28:09;;;;;;;;;;;;;;;21.68;28.90;98292.69;5038036;28;1370;-78
2023/09/03 06:30:34;;;;;;;;;;;;;;;21.79;28.72;98287.59;5038017;28;1913;-78
2023/09/03 06:33:00;;;;;;;;;;;;;;;21.97;27.93;98287.19;5038353;28;1147;-79
2023/09/03 06:35:26;;;;;;;;;;;;;;;21.91;28.06;98283.25;5017966;28;929;-79
2023/09/03 06:37:51;;;;;;;;;;;;;;;21.81;28.48;98285.13;5034775;28;1123;-79
2023/09/03 06:40:17;;;;;;;;;;;;;;;21.62;28.79;98280.31;4991996;28;1141;-78
2023/09/03 06:42:42;;;;;;;;;;;;;;;21.74;28.76;98293.78;5057818;28;929;-80
2023/09/03 06:45:08;;;;;;;;;;;;;;;21.53;29.07;98297.88;5057514;28;1003;-78
2023/09/03 06:47:34;;;;;;;;;;;;;;;21.85;28.48;98297.16;5057612;28;952;-78
2023/09/03 06:49:59;;;;;;;;;;;;;;;21.77;28.64;98292.91;5057780;28;1979;-78
2023/09/03 06:52:25;;;;;;;;;;;;;;;22.00;28.22;98305.34;5057900;28;1037;-79
2023/09/03 06:54:51;;;;;;;;;;;;;;;22.01;28.31;98304.09;5057709;28;1320;-79
2023/09/03 06:57:17;;;;;;;;;;;;;;;21.81;28.80;98295.63;5041263;28;1119;-78
2023/09/03 06:59:43;;;;;;;;;;;;;;;21.92;28.65;98303.91;5037239;28;977;-78
2023/09/03 07:02:08;;;;;;;;;;;;;;;22.12;28.38;98299.00;5037441;28;865;-78
2023/09/03 07:04:35;;;;;;;;;;;;;;;21.80;28.59;98300.50;5020796;28;973;-79
2023/09/03 07:07:01;;;;;;;;;;;;;;;22.00;28.24;98302.50;5036101;28;971;-78
2023/09/03 07:09:31;;;;;;;;;;;;;;;21.89;28.53;98299.13;5040899;28;1911;-79
2023/09/03 07:11:56;;;;;;;;;;;;;;;21.81;28.60;98302.13;5037399;28;1208;-79
2023/09/03 07:14:22;;;;;;;;;;;;;;;21.62;29.16;98300.13;5020847;28;1429;-78
2023/09/03 07:16:48;;;;;;;;;;;;;;;21.74;28.97;98296.59;5020982;28;1116;-78
2023/09/03 07:19:13;;;;;;;;;;;;;;;21.95;28.55;98300.19;5037070;28;912;-79
2023/09/03 07:21:39;;;;;;;;;;;;;;;21.58;29.20;98310.72;5036876;28;1044;-78
2023/09/03 07:24:05;;;;;;;;;;;;;;;21.66;28.85;98300.84;5037354;28;892;-78
2023/09/03 07:26:30;;;;;;;;;;;;;;;22.04;28.39;98303.22;5020153;28;1139;-78
2023/09/03 07:28:56;;;;;;;;;;;;;;;21.91;28.66;98307.97;5020336;28;1130;-78
2023/09/03 07:31:21;;;;;;;;;;;;;;;21.94;28.65;98307.91;5004799;28;1910;-79
2023/09/03 07:33:47;;;;;;;;;;;;;;;22.05;28.47;98304.81;5017057;28;1174;-79
2023/09/03 07:36:13;;;;;;;;;;;;;;;22.05;28.36;98307.66;5017052;28;1017;-78
2023/09/03 07:38:38;;;;;;;;;;;;;;;21.58;29.23;98307.91;5016831;28;1003;-78
2023/09/03 07:41:04;;;;;;;;;;;;;;;21.48;29.47;98301.22;5033813;28;1232;-79
2023/09/03 07:43:30;;;;;;;;;;;;;;;21.49;29.25;98302.00;5020123;28;944;-78
2023/09/03 07:45:55;;;;;;;;;;;;;;;21.62;29.05;98305.78;5020240;28;995;-78
2023/09/03 07:48:21;;;;;;;;;;;;;;;21.72;29.02;98296.25;5016411;28;909;-79
2023/09/03 07:50:47;;;;;;;;;;;;;;;21.89;28.64;98296.28;5000074;28;1883;-79
2023/09/03 07:53:12;;;;;;;;;;;;;;;21.78;28.92;98305.81;4996988;28;1071;-79
2023/09/03 07:55:38;;;;;;;;;;;;;;;22.13;28.25;98302.66;4988074;28;1214;-78
2023/09/03 07:58:03;;;;;;;;;;;;;;;22.05;28.31;98304.81;4969669;28;1251;-79
2023/09/03 08:00:29;;;;;;;;;;;;;;;22.29;28.18;98302.66;4967337;28;1313;-78
2023/09/03 08:02:55;;;;;;;;;;;;;;;21.95;28.59;98305.84;4968108;28;1242;-79
2023/09/03 08:05:20;;;;;;;;;;;;;;;22.08;28.55;98306.78;4951228;28;1356;-78
2023/09/03 08:07:46;;;;;;;;;;;;;;;21.76;28.79;98293.31;4964544;28;1072;-79
2023/09/03 08:10:11;;;;;;;;;;;;;;;22.09;28.33;98285.69;4966109;28;1926;-78
2023/09/03 08:12:37;;;;;;;;;;;;;;;22.18;28.42;98308.59;4961802;28;1127;-79
2023/09/03 08:15:03;;;;;;;;;;;;;;;22.07;28.43;98302.31;4950313;28;1412;-79
2023/09/03 08:17:31;;;;;;;;;;;;;;;21.90;28.83;98297.88;4966935;28;1048;-78
2023/09/03 08:19:56;;;;;;;;;;;;;;;21.88;28.73;98301.16;4996468;28;1301;-78
2023/09/03 08:22:22;;;;;;;;;;;;;;;22.02;28.79;98294.34;4988150;28;1337;-79
2023/09/03 08:24:47;;;;;;;;;;;;;;;22.05;28.65;98287.81;5000985;28;1312;-78
2023/09/03 08:27:14;;;;;;;;;;;;;;;22.08;28.70;98296.22;4996297;28;904;-78
2023/09/03 08:29:40;;;;;;;;;;;;;;;22.26;28.48;98292.97;4999881;28;1906;-78
2023/09/03 08:32:05;;;;;;;;;;;;;;;22.06;28.48;98289.41;5001679;28;1002;-78
2023/09/03 08:34:32;;;;;;;;;;;;;;;22.08;28.70;98281.28;5003402;28;1014;-79
2023/09/03 08:36:58;;;;;;;;;;;;;;;22.19;28.76;98284.66;5018963;28;908;-78
2023/09/03 08:39:24;;;;;;;;;;;;;;;22.13;28.80;98292.09;5036386;28;1199;-79
2023/09/03 08:41:49;;;;;;;;;;;;;;;22.26;28.51;98287.31;5036028;28;909;-78
2023/09/03 08:44:18;;;;;;;;;;;;;;;22.20;28.63;98289.09;5020002;28;1103;-79
2023/09/03 08:46:44;;;;;;;;;;;;;;;22.20;28.83;98277.75;5036397;28;945;-78
2023/09/03 08:49:09;;;;;;;;;;;;;;;22.03;29.09;98276.91;5036249;28;1993;-79
2023/09/03 08:51:35;;;;;;;;;;;;;;;22.42;28.40;98277.22;5036154;28;976;-79
2023/09/03 08:54:01;;;;;;;;;;;;;;;22.10;28.69;98273.13;5035725;28;907;-79
2023/09/03 08:56:26;;;;;;;;;;;;;;;22.28;28.49;98284.84;5036004;28;818;-78
2023/09/03 08:58:52;;;;;;;;;;;;;;;22.13;28.95;98277.94;5019533;28;1159;-77
2023/09/03 09:01:18;;;;;;;;;;;;;;;22.24;28.78;98278.47;5036200;28;936;-78
2023/09/03 09:03:44;;;;;;;;;;;;;;;22.04;29.00;98275.69;5019680;28;1350;-78
2023/09/03 09:06:10;;;;;;;;;;;;;;;22.11;28.93;98269.06;5035868;28;875;-78
2023/09/03 09:08:35;;;;;;;;;;;;;;;22.39;28.29;98269.63;5035815;28;1005;-77
2023/09/03 09:11:03;;;;;;;;;;;;;;;22.40;28.26;98268.38;4998170;28;1963;-78
2023/09/03 09:13:28;;;;;;;;;;;;;;;22.51;28.08;98274.56;4998355;28;927;-78
2023/09/03 09:15:54;;;;;;;;;;;;;;;22.48;28.31;98269.75;4994897;28;981;-78
2023/09/03 09:18:20;;;;;;;;;;;;;;;21.95;28.92;98269.03;4978791;28;909;-78
2023/09/03 09:20:45;;;;;;;;;;;;;;;22.10;28.86;98267.44;4995105;28;981;-77
2023/09/03 09:23:11;;;;;;;;;;;;;;;22.39;28.48;98261.09;4978795;28;957;-78
2023/09/03 09:25:36;;;;;;;;;;;;;;;22.15;28.60;98264.09;4979027;28;825;-78
2023/09/03 09:28:12;;;;;;;;;;;;;;;22.35;28.62;98264.81;4962887;28;1223;-78
2023/09/03 09:30:37;;;;;;;;;;;;;;;21.73;29.36;98261.03;4978507;28;1906;-77
2023/09/03 09:33:04;;;;;;;;;;;;;;;22.02;28.73;98254.69;4978730;28;1409;-78
2023/09/03 09:35:29;;;;;;;;;;;;;;;22.01;29.09;98261.59;4995111;28;1108;-78
2023/09/03 09:37:55;;;;;;;;;;;;;;;22.35;28.43;98255.53;4962628;28;942;-78
2023/09/03 09:40:27;;;;;;;;;;;;;;;22.08;28.83;98258.59;4978643;28;1106;-79
2023/09/03 09:42:56;;;;;;;;;;;;;;;22.19;28.43;98258.38;4995492;28;965;-78
2023/09/03 09:45:22;;;;;;;;;;;;;;;22.35;28.40;98261.97;4982158;28;1216;-78
2023/09/03 09:47:49;;;;;;;;;;;;;;;22.47;28.22;98259.66;5014675;28;890;-77
2023/09/03 09:50:15;;;;;;;;;;;;;;;22.24;28.54;98260.66;4982974;28;1914;-78
2023/09/03 09:52:40;;;;;;;;;;;;;;;22.46;28.08;98256.03;4986393;28;1160;-78
2023/09/03 09:55:06;;;;;;;;;;;;;;;22.34;28.47;98257.56;5011799;28;1199;-77
2023/09/03 09:57:32;;;;;;;;;;;;;;;22.27;28.61;98256.94;4989275;28;1242;-78
2023/09/03 10:00:01;;;;;;;;;;;;;;;22.11;28.52;98252.06;4962956;28;907;-78
2023/09/03 10:02:27;;;;;;;;;;;;;;;22.21;28.59;98248.16;4963744;28;1352;-78
2023/09/03 10:04:52;;;;;;;;;;;;;;;22.05;28.89;98250.97;4979409;28;956;-77
2023/09/03 10:07:18;;;;;;;;;;;;;;;22.07;28.71;98245.66;4965766;28;1128;-78
2023/09/03 10:09:44;;;;;;;;;;;;;;;21.90;28.93;98241.22;4962442;28;1911;-78
2023/09/03 10:12:10;;;;;;;;;;;;;;;22.12;28.65;98247.97;4963068;28;1176;-78
2023/09/03 10:14:36;;;;;;;;;;;;;;;21.97;28.97;98243.91;4965007;28;1085;-78
2023/09/03 10:17:02;;;;;;;;;;;;;;;21.92;29.14;98245.22;4990408;28;1380;-78
2023/09/03 10:19:30;;;;;;;;;;;;;;;21.84;28.99;98238.91;4981664;28;842;-79
2023/09/03 10:21:56;;;;;;;;;;;;;;;22.15;28.79;98247.09;5013025;28;1099;-78
2023/09/03 10:24:24;;;;;;;;;;;;;;;21.96;29.08;98236.63;5021217;28;847;-78
2023/09/03 10:26:52;;;;;;;;;;;;;;;22.02;28.89;98232.84;5038101;28;945;-78
2023/09/03 10:29:19;;;;;;;;;;;;;;;22.09;28.78;98224.13;5068357;28;1910;-78
2023/09/03 10:31:44;;;;;;;;;;;;;;;21.92;28.94;98221.75;5042178;28;1183;-78
2023/09/03 10:34:10;;;;;;;;;;;;;;;22.19;28.65;98225.16;5058787;28;1059;-78
2023/09/03 10:36:36;;;;;;;;;;;;;;;22.12;28.58;98222.47;5057215;28;856;-79
2023/09/03 10:39:27;;;;;;;;;;;;;;;22.05;28.61;98214.13;5024150;28;1269;-79
2023/09/03 10:42:11;;;;;;;;;;;;;;;22.16;28.78;98231.69;4962275;28;933;-78
2023/09/03 10:44:39;;;;;;;;;;;;;;;22.14;28.78;98222.06;4962259;28;887;-78
2023/09/03 10:47:04;;;;;;;;;;;;;;;22.02;28.65;98215.84;4978309;28;1300;-78
2023/09/03 10:49:42;;;;;;;;;;;;;;;22.47;28.08;98211.47;4962316;28;1914;-78
2023/09/03 10:52:27;;;;;;;;;;;;;;;22.19;28.48;98202.47;4978462;28;938;-78
2023/09/03 10:55:08;;;;;;;;;;;;;;;22.06;28.83;98199.50;4962550;28;889;-78
2023/09/03 10:57:33;;;;;;;;;;;;;;;22.12;28.53;98191.31;4978862;28;1048;-78
2023/09/03 11:00:05;;;;;;;;;;;;;;;22.04;28.92;98178.53;4977306;28;953;-78
2023/09/03 11:02:31;;;;;;;;;;;;;;;21.89;29.04;98182.97;4978566;28;986;-78
2023/09/03 11:05:09;;;;;;;;;;;;;;;22.33;28.40;98182.25;4978080;28;912;-78
2023/09/03 11:07:34;;;;;;;;;;;;;;;22.02;28.77;98186.66;4971712;28;932;-79
2023/09/03 11:10:18;;;;;;;;;;;;;;;21.85;28.95;98189.50;4997257;28;1907;-79
2023/09/03 11:12:44;;;;;;;;;;;;;;;22.07;28.49;98186.13;4997288;28;1017;-78
2023/09/03 11:15:10;;;;;;;;;;;;;;;21.95;28.80;98181.19;4997537;28;917;-78
2023/09/03 11:17:35;;;;;;;;;;;;;;;22.10;28.55;98177.59;5000473;28;1049;-78
2023/09/03 11:20:01;;;;;;;;;;;;;;;22.11;28.42;98184.03;5056643;28;1132;-78
2023/09/03 11:22:28;;;;;;;;;;;;;;;22.19;28.36;98174.13;5056540;28;971;-79
2023/09/03 11:24:53;;;;;;;;;;;;;;;21.82;28.91;98172.63;5040572;28;972;-78
2023/09/03 11:27:19;;;;;;;;;;;;;;;22.05;28.55;98168.78;5023138;28;970;-77
2023/09/03 11:29:44;;;;;;;;;;;;;;;22.06;28.69;98164.72;5040003;28;1996;-78
2023/09/03 11:32:10;;;;;;;;;;;;;;;21.97;28.84;98167.41;5023314;28;887;-78
2023/09/03 11:34:35;;;;;;;;;;;;;;;21.99;28.91;98170.56;5039786;28;951;-78
2023/09/03 11:37:02;;;;;;;;;;;;;;;21.88;29.02;98164.38;5039861;28;901;-78
2023/09/03 11:39:28;;;;;;;;;;;;;;;22.22;28.50;98173.22;5039696;28;828;-78
2023/09/03 11:41:54;;;;;;;;;;;;;;;22.20;28.66;98180.59;5039661;28;791;-78
2023/09/03 11:44:20;;;;;;;;;;;;;;;22.04;28.84;98176.50;5056157;28;954;-78
2023/09/03 11:47:01;;;;;;;;;;;;;;;21.76;28.94;98180.84;5039742;28;940;-78
2023/09/03 11:49:27;;;;;;;;;;;;;;;22.00;28.72;98172.97;5039268;28;1979;-78
2023/09/03 11:51:53;;;;;;;;;;;;;;;21.97;28.90;98173.06;5054633;28;841;-78
2023/09/03 11:54:22;;;;;;;;;;;;;;;22.06;28.51;98176.84;5056075;28;2141;-78
2023/09/03 11:56:47;;;;;;;;;;;;;;;22.40;27.95;98171.97;5055989;28;979;-78
2023/09/03 11:59:13;;;;;;;;;;;;;;;22.20;28.44;98181.38;5055866;28;955;-78
2023/09/03 12:01:38;;;;;;;;;;;;;;;21.63;29.10;98171.47;5056065;28;868;-78
2023/09/03 12:04:04;;;;;;;;;;;;;;;21.80;28.77;98170.22;5056133;28;814;-78
2023/09/03 12:06:34;;;;;;;;;;;;;;;21.98;28.60;98163.31;5055966;28;932;-78
2023/09/03 12:08:59;;;;;;;;;;;;;;;21.99;28.77;98156.41;5039268;28;832;-78
2023/09/03 12:11:28;;;;;;;;;;;;;;;22.38;28.17;98151.75;5038501;28;1969;-78
2023/09/03 12:13:54;;;;;;;;;;;;;;;22.23;28.36;98140.03;5039228;28;878;-78
2023/09/03 12:16:22;;;;;;;;;;;;;;;21.98;28.61;98152.00;5039438;28;1156;-78
2023/09/03 12:18:55;;;;;;;;;;;;;;;21.89;28.89;98143.31;5039033;28;898;-78
2023/09/03 12:21:24;;;;;;;;;;;;;;;22.07;28.27;98149.31;5039134;28;881;-79
2023/09/03 12:23:50;;;;;;;;;;;;;;;22.04;28.68;98141.72;5052439;28;974;-79
2023/09/03 12:26:16;;;;;;;;;;;;;;;21.98;28.84;98135.00;5056961;28;1492;-79
2023/09/03 12:28:42;;;;;;;;;;;;;;;22.19;28.10;98145.00;5005903;28;956;-78
2023/09/03 12:31:08;;;;;;;;;;;;;;;22.09;28.56;98132.66;5055004;28;1980;-78
2023/09/03 12:33:34;;;;;;;;;;;;;;;22.10;28.29;98137.91;5055250;28;891;-78
2023/09/03 12:36:08;;;;;;;;;;;;;;;21.89;28.71;98134.81;5038384;28;982;-79
2023/09/03 12:38:47;;;;;;;;;;;;;;;21.94;28.47;98128.63;5054997;28;998;-79
2023/09/03 12:41:12;;;;;;;;;;;;;;;21.87;28.56;98134.47;5038507;28;1062;-78
2023/09/03 12:43:38;;;;;;;;;;;;;;;22.09;28.48;98129.84;5021760;28;891;-78
2023/09/03 12:46:03;;;;;;;;;;;;;;;21.98;28.67;98135.00;5054847;28;995;-78
2023/09/03 12:48:29;;;;;;;;;;;;;;;21.81;28.85;98129.34;5055029;28;983;-78
2023/09/03 12:50:55;;;;;;;;;;;;;;;21.59;28.86;98131.88;5054460;28;1955;-78
2023/09/03 12:53:20;;;;;;;;;;;;;;;21.46;29.25;98127.38;5055103;28;843;-78
2023/09/03 12:55:46;;;;;;;;;;;;;;;21.65;29.05;98122.88;5055541;28;988;-78
2023/09/03 12:58:12;;;;;;;;;;;;;;;21.63;29.26;98123.31;5054773;28;1055;-78